createdAt,value
2023-03-25T00:02:29.436Z,77.34
2023-03-25T00:05:03.057Z,77.13
2023-03-25T00:07:36.151Z,77.51
2023-03-25T00:10:10.079Z,77.52
2023-03-25T00:12:42.596Z,78.51
2023-03-25T00:15:16.076Z,78.60
2023-03-25T00:17:48.376Z,79.69
2023-03-25T00:20:20.766Z,78.65
2023-03-25T00:22:53.056Z,79.70
2023-03-25T00:25:25.405Z,80.13
2023-03-25T00:27:57.690Z,81.19
2023-03-25T00:30:31.129Z,81.11
2023-03-25T00:33:03.734Z,81.90
2023-03-25T00:35:36.842Z,81.86
2023-03-25T00:38:09.158Z,81.73
2023-03-25T00:40:41.521Z,82.35
2023-03-25T00:43:14.182Z,82.65
2023-03-25T00:45:47.204Z,83.26
2023-03-25T00:48:19.799Z,82.87
2023-03-25T00:50:52.227Z,82.83
2023-03-25T00:53:24.641Z,84.21
2023-03-25T00:55:57.831Z,84.69
2023-03-25T00:58:30.296Z,84.00
2023-03-25T01:01:12.341Z,84.01
2023-03-25T01:03:45.038Z,85.18
2023-03-25T01:06:20.896Z,86.14
2023-03-25T01:08:53.205Z,85.59
2023-03-25T01:11:27.504Z,84.38
2023-03-25T01:14:00.086Z,85.04
2023-03-25T01:16:33.671Z,84.84
2023-03-25T01:19:06.161Z,85.25
2023-03-25T01:21:38.903Z,85.85
2023-03-25T01:24:13.572Z,85.47
2023-03-25T01:26:46.059Z,86.03
2023-03-25T01:29:20.818Z,86.87
2023-03-25T01:31:53.961Z,86.16
2023-03-25T01:34:26.500Z,87.28
2023-03-25T01:37:00.348Z,86.49
2023-03-25T01:39:32.762Z,86.24
2023-03-25T01:42:05.239Z,86.51
2023-03-25T01:45:29.960Z,86.63
2023-03-25T01:48:09.531Z,86.80
2023-03-25T01:50:47.461Z,87.76
2023-03-25T01:53:20.152Z,88.07
2023-03-25T01:55:53.933Z,86.63
2023-03-25T01:58:28.544Z,86.73
2023-03-25T02:01:02.633Z,87.04
2023-03-25T02:03:36.503Z,87.18
2023-03-25T02:06:14.840Z,86.90
2023-03-25T02:08:48.489Z,86.37
2023-03-25T02:11:21.068Z,86.76
2023-03-25T02:13:53.527Z,87.98
2023-03-25T02:16:32.801Z,87.17
2023-03-25T02:19:34.971Z,87.85
2023-03-25T02:22:37.270Z,88.04
2023-03-25T02:25:35.663Z,88.37
2023-03-25T02:28:24.877Z,87.47
2023-03-25T02:31:28.864Z,88.30
2023-03-25T02:34:33.044Z,88.11
2023-03-25T02:37:27.117Z,88.86
2023-03-25T02:40:06.359Z,88.85
2023-03-25T02:42:44.529Z,89.04
2023-03-25T02:45:23.426Z,89.77
2023-03-25T02:48:01.431Z,89.58
2023-03-25T02:50:39.938Z,90.23
2023-03-25T02:53:16.765Z,89.42
2023-03-25T02:55:51.997Z,89.95
2023-03-25T02:58:27.448Z,90.79
2023-03-25T03:01:00.031Z,90.88
2023-03-25T03:03:33.012Z,91.49
2023-03-25T03:06:07.913Z,92.12
2023-03-25T03:09:03.116Z,91.43
2023-03-25T03:11:47.082Z,90.65
2023-03-25T03:14:31.726Z,90.29
2023-03-25T03:17:12.098Z,90.45
2023-03-25T03:19:49.084Z,90.14
2023-03-25T03:22:34.931Z,89.88
2023-03-25T03:25:19.366Z,89.99
2023-03-25T03:27:57.818Z,90.61
2023-03-25T03:30:35.186Z,90.73
2023-03-25T03:33:14.737Z,91.34
2023-03-25T03:35:56.676Z,91.66
2023-03-25T03:38:34.624Z,91.76
2023-03-25T03:41:10.643Z,91.75
2023-03-25T03:43:48.059Z,92.45
2023-03-25T03:46:24.461Z,93.46
2023-03-25T03:48:59.461Z,94.94
2023-03-25T03:51:37.119Z,95.15
2023-03-25T03:54:15.956Z,96.28
2023-03-25T03:56:52.866Z,96.55
2023-03-25T03:59:34.002Z,96.06
2023-03-25T04:02:14.336Z,95.24
2023-03-25T04:04:46.977Z,95.91
2023-03-25T04:07:22.218Z,95.48
2023-03-25T04:10:02.607Z,95.48
2023-03-25T04:12:40.355Z,96.57
2023-03-25T04:15:14.613Z,96.74
2023-03-25T04:17:47.299Z,96.47
2023-03-25T04:20:24.329Z,96.58
2023-03-25T04:22:56.654Z,97.22
2023-03-25T04:25:30.822Z,97.29
2023-03-25T04:28:03.305Z,97.82
2023-03-25T04:30:36.820Z,98.83
2023-03-25T04:33:09.373Z,100.00
2023-03-25T04:35:41.769Z,100.00
2023-03-25T04:38:16.338Z,100.00
2023-03-25T04:40:48.772Z,100.00
2023-03-25T04:43:21.238Z,100.00
2023-03-25T04:45:54.971Z,99.87
2023-03-25T04:48:29.838Z,99.47
2023-03-25T04:51:03.129Z,98.78
2023-03-25T04:53:35.888Z,99.53
2023-03-25T04:56:15.443Z,99.05
2023-03-25T04:58:47.787Z,99.27
2023-03-25T05:01:23.964Z,99.47
2023-03-25T05:04:04.108Z,99.97
2023-03-25T05:06:39.186Z,100.00
2023-03-25T05:09:15.027Z,100.00
2023-03-25T05:11:48.030Z,100.00
2023-03-25T05:14:21.585Z,100.00
2023-03-25T05:16:56.686Z,100.00
2023-03-25T05:19:28.987Z,100.00
2023-03-25T05:22:02.491Z,100.00
2023-03-25T05:24:36.440Z,100.00
2023-03-25T05:27:09.400Z,100.00
2023-03-25T05:29:43.858Z,100.00
2023-03-25T05:32:17.198Z,100.00
2023-03-25T05:34:49.522Z,100.00
2023-03-25T05:37:22.003Z,100.00
2023-03-25T05:39:54.574Z,100.00
2023-03-25T05:42:27.114Z,100.00
2023-03-25T05:44:59.373Z,100.00
2023-03-25T05:47:32.625Z,100.00
2023-03-25T05:50:05.888Z,100.00
2023-03-25T05:52:40.925Z,100.00
2023-03-25T05:55:16.229Z,100.00
2023-03-25T05:57:48.848Z,100.00
2023-03-25T06:00:21.164Z,100.00
2023-03-25T06:02:58.296Z,100.00
2023-03-25T06:05:30.963Z,100.00
2023-03-25T06:08:03.590Z,99.69
2023-03-25T06:10:36.114Z,98.25
2023-03-25T06:13:09.819Z,93.92
2023-03-25T06:15:42.174Z,94.04
2023-03-25T06:18:15.312Z,92.74
2023-03-25T06:20:48.260Z,91.45
2023-03-25T06:23:21.966Z,91.09
2023-03-25T06:25:57.938Z,90.62
2023-03-25T06:28:30.301Z,88.38
2023-03-25T06:31:06.366Z,85.90
2023-03-25T06:33:43.002Z,86.04
2023-03-25T06:36:19.545Z,85.24
2023-03-25T06:38:51.914Z,83.49
2023-03-25T06:41:26.013Z,82.09
2023-03-25T06:44:17.202Z,79.79
2023-03-25T06:47:18.151Z,79.27
2023-03-25T06:49:55.296Z,78.33
2023-03-25T06:52:27.676Z,76.93
2023-03-25T06:55:00.113Z,75.60
2023-03-25T06:57:32.840Z,74.38
2023-03-25T07:00:06.519Z,72.37
2023-03-25T07:02:38.998Z,71.86
2023-03-25T07:05:12.154Z,72.55
2023-03-25T07:07:44.961Z,70.47
2023-03-25T07:10:17.537Z,70.51
2023-03-25T07:12:49.910Z,68.44
2023-03-25T07:15:22.325Z,68.99
2023-03-25T07:17:55.049Z,69.73
2023-03-25T07:20:28.100Z,68.76
2023-03-25T07:23:00.457Z,68.02
2023-03-25T07:25:33.003Z,66.82
2023-03-25T07:28:05.518Z,66.07
2023-03-25T07:30:40.740Z,64.81
2023-03-25T07:33:13.084Z,64.23
2023-03-25T07:35:46.247Z,60.95
2023-03-25T07:38:18.728Z,63.36
2023-03-25T07:40:51.119Z,60.74
2023-03-25T07:43:23.505Z,56.43
2023-03-25T07:46:08.299Z,53.93
2023-03-25T07:48:41.269Z,50.94
2023-03-25T07:51:14.278Z,52.49
2023-03-25T07:53:46.710Z,49.50
2023-03-25T07:56:19.222Z,48.98
2023-03-25T07:58:51.622Z,48.83
2023-03-25T08:01:24.198Z,48.11
2023-03-25T08:03:57.425Z,48.09
2023-03-25T08:06:30.550Z,48.24
2023-03-25T08:09:03.871Z,45.05
2023-03-25T08:11:36.590Z,44.67
2023-03-25T08:14:08.964Z,44.74
2023-03-25T08:16:41.325Z,43.53
2023-03-25T08:19:13.822Z,44.47
2023-03-25T08:21:46.912Z,43.81
2023-03-25T08:24:19.341Z,42.71
2023-03-25T08:26:51.760Z,43.60
2023-03-25T08:29:24.527Z,42.85
2023-03-25T08:31:56.990Z,40.55
2023-03-25T08:34:33.830Z,39.71
2023-03-25T08:37:07.254Z,38.38
2023-03-25T08:39:41.464Z,38.88
2023-03-25T08:42:13.924Z,39.66
2023-03-25T08:44:46.203Z,39.37
2023-03-25T08:47:18.659Z,38.13
2023-03-25T08:49:51.023Z,39.41
2023-03-25T08:52:24.268Z,39.27
2023-03-25T08:54:56.624Z,38.80
2023-03-25T08:57:29.091Z,39.63
2023-03-25T09:00:01.651Z,39.82
2023-03-25T09:02:34.222Z,38.62
2023-03-25T09:05:07.256Z,39.88
2023-03-25T09:07:40.202Z,38.57
2023-03-25T09:10:12.584Z,38.27
2023-03-25T09:12:44.925Z,38.32
2023-03-25T09:15:17.223Z,38.54
2023-03-25T09:17:49.662Z,38.29
2023-03-25T09:20:22.546Z,37.00
2023-03-25T09:22:55.511Z,36.38
2023-03-25T09:25:28.150Z,36.48
2023-03-25T09:28:00.415Z,36.38
2023-03-25T09:30:32.807Z,36.51
2023-03-25T09:33:06.200Z,37.01
2023-03-25T09:35:39.766Z,37.03
2023-03-25T09:38:12.775Z,36.25
2023-03-25T09:40:45.902Z,36.64
2023-03-25T09:43:28.630Z,36.33
2023-03-25T09:46:01.991Z,35.94
2023-03-25T09:48:37.895Z,35.32
2023-03-25T09:51:15.172Z,34.83
2023-03-25T09:53:53.572Z,34.02
2023-03-25T09:56:28.381Z,33.85
2023-03-25T09:59:04.722Z,38.67
2023-03-25T10:01:47.254Z,39.09
2023-03-25T10:04:39.264Z,40.50
2023-03-25T10:07:25.474Z,40.96
2023-03-25T10:10:12.113Z,39.85
2023-03-25T10:12:53.054Z,37.64
2023-03-25T10:15:32.453Z,35.35
2023-03-25T10:18:22.135Z,34.44
2023-03-25T10:21:03.413Z,34.94
2023-03-25T10:23:41.349Z,34.81
2023-03-25T10:26:20.049Z,33.84
2023-03-25T10:28:57.973Z,33.06
2023-03-25T10:31:36.177Z,33.74
2023-03-25T10:34:17.307Z,33.68
2023-03-25T10:36:54.373Z,35.25
2023-03-25T10:39:36.616Z,33.38
2023-03-25T10:42:19.369Z,32.97
2023-03-25T10:44:52.939Z,33.22
2023-03-25T10:47:31.207Z,34.14
2023-03-25T10:50:04.335Z,34.17
2023-03-25T10:52:36.722Z,34.39
2023-03-25T10:55:22.038Z,34.13
2023-03-25T10:57:56.300Z,34.77
2023-03-25T11:00:29.804Z,35.91
2023-03-25T11:03:02.926Z,34.37
2023-03-25T11:05:35.597Z,33.17
2023-03-25T11:08:22.192Z,33.83
2023-03-25T11:10:57.330Z,33.25
2023-03-25T11:13:31.218Z,32.95
2023-03-25T11:16:04.481Z,32.95
2023-03-25T11:18:40.615Z,31.66
2023-03-25T11:21:14.239Z,31.65
2023-03-25T11:23:48.292Z,31.96
2023-03-25T11:26:23.752Z,31.34
2023-03-25T11:29:05.319Z,31.29
2023-03-25T11:31:38.864Z,32.56
2023-03-25T11:34:18.972Z,31.74
2023-03-25T11:36:55.061Z,31.62
2023-03-25T11:39:32.909Z,32.26
2023-03-25T11:42:15.437Z,31.78
2023-03-25T11:44:52.026Z,31.62
2023-03-25T11:47:29.772Z,31.78
2023-03-25T11:50:03.376Z,30.38
2023-03-25T11:52:41.179Z,30.81
2023-03-25T11:55:17.695Z,29.60
2023-03-25T11:57:51.475Z,31.47
2023-03-25T12:00:33.356Z,31.77
2023-03-25T12:03:19.570Z,31.69
2023-03-25T12:06:03.869Z,32.47
2023-03-25T12:08:43.499Z,33.03
2023-03-25T12:14:30.764Z,33.45
2023-03-25T12:17:10.254Z,33.82
2023-03-25T12:19:47.321Z,33.87
2023-03-25T12:22:30.413Z,34.56
2023-03-25T12:25:21.932Z,33.79
2023-03-25T12:28:10.810Z,33.63
2023-03-25T12:30:53.255Z,33.79
2023-03-25T12:33:39.874Z,34.00
2023-03-25T12:36:26.845Z,33.53
2023-03-25T12:39:16.607Z,32.66
2023-03-25T12:42:00.218Z,33.90
2023-03-25T12:44:47.171Z,34.03
2023-03-25T12:47:24.612Z,33.15
2023-03-25T12:50:16.069Z,33.26
2023-03-25T12:52:56.182Z,33.58
2023-03-25T12:55:43.314Z,34.28
2023-03-25T12:58:33.295Z,34.89
2023-03-25T13:01:13.841Z,34.96
2023-03-25T13:04:08.036Z,35.82
2023-03-25T13:06:46.840Z,36.92
2023-03-25T13:09:24.172Z,36.63
2023-03-25T13:12:02.891Z,36.99
2023-03-25T13:14:39.296Z,37.66
2023-03-25T13:17:23.399Z,38.59
2023-03-25T13:20:01.357Z,39.21
2023-03-25T13:22:38.680Z,39.36
2023-03-25T13:25:20.711Z,41.31
2023-03-25T13:27:57.998Z,41.43
2023-03-25T13:30:36.290Z,40.61
2023-03-25T13:33:15.431Z,40.51
2023-03-25T13:35:52.773Z,42.33
2023-03-25T13:38:30.090Z,41.24
2023-03-25T13:41:10.307Z,42.08
2023-03-25T13:43:50.888Z,43.00
2023-03-25T13:46:30.433Z,46.29
2023-03-25T13:49:06.633Z,51.05
2023-03-25T13:51:39.017Z,57.86
2023-03-25T13:54:16.489Z,57.84
2023-03-25T13:57:32.678Z,57.72
2023-03-25T14:00:30.321Z,60.82
2023-03-25T14:03:24.022Z,63.29
2023-03-25T14:06:17.702Z,69.06
2023-03-25T14:09:31.151Z,72.02
2023-03-25T14:12:10.422Z,75.02
2023-03-25T14:14:47.661Z,74.00
2023-03-25T14:17:22.273Z,73.77
2023-03-25T14:19:58.412Z,75.74
2023-03-25T14:22:34.835Z,77.50
2023-03-25T14:25:20.381Z,78.51
2023-03-25T14:27:53.630Z,80.64
2023-03-25T14:30:28.469Z,79.86
2023-03-25T14:33:03.252Z,82.86
2023-03-25T14:35:49.891Z,84.02
2023-03-25T14:38:56.398Z,86.20
2023-03-25T14:42:05.645Z,84.04
2023-03-25T14:44:40.861Z,84.54
2023-03-25T14:47:31.337Z,87.35
2023-03-25T14:50:31.190Z,86.51
2023-03-25T14:53:07.586Z,84.79
2023-03-25T14:55:43.796Z,85.61
2023-03-25T14:58:19.657Z,83.32
2023-03-25T15:00:55.423Z,86.96
2023-03-25T15:03:34.196Z,85.45
2023-03-25T15:06:10.873Z,83.32
2023-03-25T15:08:52.800Z,83.70
2023-03-25T15:11:30.965Z,84.95
2023-03-25T15:14:08.029Z,82.81
2023-03-25T15:16:57.808Z,80.86
2023-03-25T15:19:50.155Z,81.53
2023-03-25T15:22:23.325Z,82.35
2023-03-25T15:24:58.903Z,82.74
2023-03-25T15:27:50.307Z,83.44
2023-03-25T15:30:51.654Z,84.74
2023-03-25T15:33:50.330Z,84.68
2023-03-25T15:36:45.325Z,87.13
2023-03-25T15:39:34.994Z,86.88
2023-03-25T15:42:16.585Z,86.78
2023-03-25T15:45:18.875Z,86.73
2023-03-25T15:48:13.250Z,87.60
2023-03-25T15:51:04.808Z,88.08
2023-03-25T15:53:54.405Z,87.97
2023-03-25T15:56:29.998Z,87.91
2023-03-25T15:59:07.645Z,87.04
2023-03-25T16:01:43.720Z,85.67
2023-03-25T16:04:20.744Z,86.33
2023-03-25T16:06:56.058Z,86.66
2023-03-25T16:09:29.307Z,87.15
2023-03-25T16:12:02.873Z,86.74
2023-03-25T16:14:36.625Z,85.43
2023-03-25T16:17:13.328Z,85.76
2023-03-25T16:19:49.753Z,85.54
2023-03-25T16:22:26.626Z,86.63
2023-03-25T16:25:02.056Z,87.98
2023-03-25T16:27:37.073Z,89.32
2023-03-25T16:30:21.828Z,90.58
2023-03-25T16:33:04.973Z,89.88
2023-03-25T16:35:39.547Z,90.25
2023-03-25T16:38:16.556Z,91.05
2023-03-25T16:40:50.526Z,91.33
2023-03-25T16:43:26.509Z,91.75
2023-03-25T16:46:01.174Z,91.59
2023-03-25T16:48:35.615Z,91.77
2023-03-25T16:51:12.529Z,92.15
2023-03-25T16:53:49.351Z,92.19
2023-03-25T16:56:24.211Z,91.99
2023-03-25T16:59:01.449Z,92.03
2023-03-25T17:01:37.717Z,91.85
2023-03-25T17:04:16.516Z,92.44
2023-03-25T17:06:52.542Z,92.76
2023-03-25T17:09:33.377Z,93.26
2023-03-25T17:12:08.806Z,93.40
2023-03-25T17:14:44.026Z,93.66
2023-03-25T17:17:31.824Z,94.44
2023-03-25T17:20:07.994Z,94.66
2023-03-25T17:22:40.511Z,94.24
2023-03-25T17:25:24.012Z,94.39
2023-03-25T17:28:00.193Z,94.65
2023-03-25T17:30:41.840Z,95.36
2023-03-25T17:33:18.725Z,94.32
2023-03-25T17:35:54.278Z,93.25
2023-03-25T17:38:28.846Z,91.60
2023-03-25T17:41:03.815Z,91.62
2023-03-25T17:43:41.205Z,90.54
2023-03-25T17:46:18.645Z,90.87
2023-03-25T17:48:52.727Z,90.34
2023-03-25T17:51:26.389Z,90.66
2023-03-25T17:53:58.651Z,91.39
2023-03-25T17:56:31.021Z,91.19
2023-03-25T17:59:06.686Z,92.60
2023-03-25T18:01:39.671Z,93.76
2023-03-25T18:04:14.828Z,93.46
2023-03-25T18:06:47.618Z,93.33
2023-03-25T18:09:22.744Z,93.32
2023-03-25T18:11:56.181Z,94.26
2023-03-25T18:14:28.511Z,93.93
2023-03-25T18:17:03.289Z,93.46
2023-03-25T18:19:35.592Z,94.19
2023-03-25T18:22:19.345Z,94.62
2023-03-25T18:24:52.934Z,94.07
2023-03-25T18:27:33.556Z,94.30
2023-03-25T18:30:18.839Z,95.14
2023-03-25T18:32:52.050Z,95.05
2023-03-25T18:35:24.568Z,95.21
2023-03-25T18:37:56.964Z,95.84
2023-03-25T18:40:34.549Z,95.75
2023-03-25T18:43:06.826Z,95.83
2023-03-25T18:45:39.318Z,96.30
2023-03-25T18:48:12.920Z,96.07
2023-03-25T18:50:51.704Z,95.89
2023-03-25T18:53:25.637Z,95.82
2023-03-25T18:56:00.276Z,97.53
2023-03-25T18:58:34.327Z,97.91
2023-03-25T19:01:07.839Z,100.00
2023-03-25T19:03:41.447Z,99.44
2023-03-25T19:06:14.328Z,98.33
2023-03-25T19:08:47.169Z,98.38
2023-03-25T19:11:22.270Z,97.20
2023-03-25T19:13:54.984Z,96.66
2023-03-25T19:16:27.451Z,97.87
2023-03-25T19:19:00.936Z,98.79
2023-03-25T19:21:34.280Z,97.43
2023-03-25T19:24:06.957Z,98.12
2023-03-25T19:26:39.421Z,98.85
2023-03-25T19:29:11.837Z,97.61
2023-03-25T19:31:44.245Z,98.37
2023-03-25T19:34:17.621Z,99.18
2023-03-25T19:36:52.498Z,98.58
2023-03-25T19:39:25.166Z,98.82
2023-03-25T19:41:57.543Z,98.90
2023-03-25T19:44:30.084Z,97.74
2023-03-25T19:47:02.645Z,97.97
2023-03-25T19:49:40.165Z,98.66
2023-03-25T19:52:12.810Z,98.79
2023-03-25T19:54:46.149Z,98.81
2023-03-25T19:57:18.585Z,98.40
2023-03-25T19:59:50.920Z,97.43
2023-03-25T20:02:23.733Z,97.48
2023-03-25T20:04:56.863Z,97.00
2023-03-25T20:07:29.225Z,97.53
2023-03-25T20:10:16.715Z,97.82
2023-03-25T20:12:52.438Z,96.92
2023-03-25T20:15:25.763Z,97.12
2023-03-25T20:17:58.600Z,97.51
2023-03-25T20:20:31.894Z,96.78
2023-03-25T20:23:04.410Z,96.91
2023-03-25T20:25:37.736Z,97.61
2023-03-25T20:28:10.249Z,94.33
2023-03-25T20:30:42.610Z,94.62
2023-03-25T20:33:15.007Z,95.54
2023-03-25T20:35:48.317Z,96.85
2023-03-25T20:38:20.847Z,96.88
2023-03-25T20:40:53.994Z,97.52
2023-03-25T20:43:26.383Z,98.23
2023-03-25T20:45:58.731Z,97.15
2023-03-25T20:48:31.606Z,97.97
2023-03-25T20:51:13.612Z,98.16
2023-03-25T20:53:46.388Z,95.18
2023-03-25T20:56:19.023Z,95.32
2023-03-25T20:58:51.374Z,97.52
2023-03-25T21:01:23.815Z,97.90
2023-03-25T21:03:57.868Z,99.15
2023-03-25T21:06:30.995Z,100.00
2023-03-25T21:09:07.356Z,100.00
2023-03-25T21:11:40.369Z,100.00
2023-03-25T21:14:12.978Z,100.00
2023-03-25T21:16:45.916Z,100.00
2023-03-25T21:19:18.278Z,97.71
2023-03-25T21:21:51.268Z,99.76
2023-03-25T21:24:23.623Z,100.00
2023-03-25T21:26:55.973Z,100.00
2023-03-25T21:29:28.881Z,100.00
2023-03-25T21:32:01.546Z,98.27
2023-03-25T21:34:34.017Z,98.12
2023-03-25T21:37:07.022Z,99.82
2023-03-25T21:39:39.417Z,100.00
2023-03-25T21:42:11.750Z,100.00
2023-03-25T21:44:44.152Z,99.31
2023-03-25T21:47:17.116Z,99.08
2023-03-25T21:49:49.751Z,98.92
2023-03-25T21:52:25.700Z,98.44
2023-03-25T21:54:58.604Z,97.94
2023-03-25T21:57:31.182Z,97.58
2023-03-25T22:00:07.167Z,97.09
2023-03-25T22:02:45.803Z,96.73
2023-03-25T22:05:18.151Z,95.44
2023-03-25T22:07:51.116Z,95.04
2023-03-25T22:10:23.408Z,96.17
2023-03-25T22:12:55.751Z,95.59
2023-03-25T22:15:28.077Z,95.92
2023-03-25T22:18:00.474Z,94.77
2023-03-25T22:20:33.026Z,92.46
2023-03-25T22:23:06.092Z,93.14
2023-03-25T22:25:38.624Z,93.63
2023-03-25T22:28:11.085Z,93.62
2023-03-25T22:30:43.444Z,91.61
2023-03-25T22:33:16.272Z,91.42
2023-03-25T22:35:50.772Z,92.87
2023-03-25T22:38:23.774Z,91.32
2023-03-25T22:40:56.100Z,92.47
2023-03-25T22:43:28.429Z,92.68
2023-03-25T22:46:02.770Z,93.04
2023-03-25T22:48:38.346Z,93.66
2023-03-25T22:51:13.337Z,94.23
2023-03-25T22:53:47.178Z,94.84
2023-03-25T22:56:22.685Z,95.38
2023-03-25T22:58:55.023Z,95.01
2023-03-25T23:01:35.200Z,99.23
2023-03-25T23:04:08.151Z,99.75
2023-03-25T23:06:41.003Z,99.40
2023-03-25T23:09:33.983Z,92.30
2023-03-25T23:12:06.874Z,89.85
2023-03-25T23:14:41.247Z,89.03
2023-03-25T23:17:13.666Z,88.13
2023-03-25T23:19:46.480Z,89.17
2023-03-25T23:22:19.024Z,89.78
2023-03-25T23:24:52.021Z,88.69
2023-03-25T23:27:26.230Z,88.55
2023-03-25T23:29:58.861Z,89.34
2023-03-25T23:32:33.364Z,88.48
2023-03-25T23:35:06.639Z,89.55
2023-03-25T23:37:40.776Z,88.99
2023-03-25T23:40:13.860Z,88.64
2023-03-25T23:42:46.235Z,88.17
2023-03-25T23:45:18.492Z,88.87
2023-03-25T23:47:50.907Z,87.97
2023-03-25T23:50:25.152Z,89.39
2023-03-25T23:53:00.972Z,89.63
2023-03-25T23:55:35.203Z,88.70
2023-03-25T23:58:07.486Z,88.76
